Eglin Air Force Base
KVPS : now visible

Airfield :











YOU CAN JOIN US ON...

 
LOGIN :

Register | Disclaimer

   EN    FR    IT 

 









Legend :    VFR   Marginal VFR   IFR   Intensive IFR   Very Intensive IFR
Visi :
Ceiling :
>= 8 km
>= 3000ft
5 to 8 km
1000 to 3000 ft
1500m to 5 km
500 to 1000 ft
800 to 1500m
200 to 500 ft
< 800m
< 200 ft
Symbols :   Thunderstorms  Fog  Heavy snow  Heavy precipitations  Wind > 20 kt







- Airport Elevation : 87 ft
- IATA code : VPS


KVPS - Eglin Air Force Base

CURRENT METAR :
  • 210356Z AUTO 00000KT 10SM CLR 23/19 A3015 RMK AO2 SLP216 T02300193 $

EXPIRED METARs :
  • 210256Z AUTO 00000KT 10SM CLR 24/20 A3014 RMK AO2 SLP213 T02400197 52009 $

TAF TAF KVPS
Valid from the 21 at 01:00 until the 22 at 07:00 UTC


210100Z 2101/2207 15007KT 9999 FEW050 FEW300 QNH3008INS WND 08007KT AFT 2104
BECMG 2114/2115 10015G20KT 9999 FEW050 SCT300 QNH3007INS WND 16012KT AFT 2117
BECMG 2120/2121 22012KT 9999 FEW055 SCT300 QNH3014INS WND 07007KT AFT 2204 TX31/2119Z TN20/2111Z
No reported NOTAMs for that airfield.



MET'MAP, your aeronautical weather chart ! - Copyright ORBIFLY December 2007 - Disclaimer

ORBIFLY MET'MAP TEAM :

Programming & Development : Alexandra Zaïnal
Concept & Development : Baudouin d'Aumeries
Co-Development & Prog : Marc-Olivier Méhu
Technical & hardware support : Manuel Goepfert

Contact : metmap@orbifly.com




SOURCES & CREDITS :

   NOAA       Earth
Advisory